sensor_id;sensor_type;location;lat;lon;timestamp;temperature;humidity
43346;DHT22;28937;51.160;4.146;2023-09-12T00:00:49;23.80;99.90
43346;DHT22;28937;51.160;4.146;2023-09-12T00:03:18;23.80;99.90
43346;DHT22;28937;51.160;4.146;2023-09-12T00:05:53;23.70;99.90
43346;DHT22;28937;51.160;4.146;2023-09-12T00:08:19;23.70;99.90
43346;DHT22;28937;51.160;4.146;2023-09-12T00:10:45;23.70;99.90
43346;DHT22;28937;51.160;4.146;2023-09-12T00:13:11;23.70;99.90
43346;DHT22;28937;51.160;4.146;2023-09-12T00:15:36;23.70;99.90
43346;DHT22;28937;51.160;4.146;2023-09-12T00:18:02;23.70;99.90
43346;DHT22;28937;51.160;4.146;2023-09-12T00:20:28;23.70;99.90
43346;DHT22;28937;51.160;4.146;2023-09-12T00:22:54;23.70;99.90
43346;DHT22;28937;51.160;4.146;2023-09-12T00:25:20;23.70;99.90
43346;DHT22;28937;51.160;4.146;2023-09-12T00:27:46;23.70;99.90
43346;DHT22;28937;51.160;4.146;2023-09-12T00:30:13;23.60;99.90
43346;DHT22;28937;51.160;4.146;2023-09-12T00:32:39;23.60;99.90
43346;DHT22;28937;51.160;4.146;2023-09-12T00:35:05;23.60;99.90
43346;DHT22;28937;51.160;4.146;2023-09-12T00:37:30;23.60;99.90
43346;DHT22;28937;51.160;4.146;2023-09-12T00:39:56;23.60;99.90
43346;DHT22;28937;51.160;4.146;2023-09-12T00:42:25;23.60;99.90
43346;DHT22;28937;51.160;4.146;2023-09-12T00:44:51;23.60;99.90
43346;DHT22;28937;51.160;4.146;2023-09-12T00:47:17;23.60;99.90
43346;DHT22;28937;51.160;4.146;2023-09-12T00:49:43;23.60;99.90
43346;DHT22;28937;51.160;4.146;2023-09-12T00:52:10;23.60;99.90
43346;DHT22;28937;51.160;4.146;2023-09-12T00:54:36;23.60;99.90
43346;DHT22;28937;51.160;4.146;2023-09-12T00:57:02;23.60;99.90
43346;DHT22;28937;51.160;4.146;2023-09-12T00:59:28;23.60;99.90
43346;DHT22;28937;51.160;4.146;2023-09-12T01:01:53;23.60;99.90
43346;DHT22;28937;51.160;4.146;2023-09-12T01:04:20;23.60;99.90
43346;DHT22;28937;51.160;4.146;2023-09-12T01:06:45;23.60;99.90
43346;DHT22;28937;51.160;4.146;2023-09-12T01:09:13;23.60;99.90
43346;DHT22;28937;51.160;4.146;2023-09-12T01:11:39;23.60;99.90
43346;DHT22;28937;51.160;4.146;2023-09-12T01:14:05;23.50;99.90
43346;DHT22;28937;51.160;4.146;2023-09-12T01:16:30;23.50;99.90
43346;DHT22;28937;51.160;4.146;2023-09-12T01:18:56;23.50;99.90
43346;DHT22;28937;51.160;4.146;2023-09-12T01:23:54;23.50;99.90
43346;DHT22;28937;51.160;4.146;2023-09-12T01:29:11;23.50;99.90
43346;DHT22;28937;51.160;4.146;2023-09-12T01:31:38;23.50;99.90
43346;DHT22;28937;51.160;4.146;2023-09-12T01:34:12;23.50;99.90
43346;DHT22;28937;51.160;4.146;2023-09-12T01:36:38;23.40;99.90
43346;DHT22;28937;51.160;4.146;2023-09-12T01:39:04;23.40;99.90
43346;DHT22;28937;51.160;4.146;2023-09-12T01:43:58;23.40;99.90
43346;DHT22;28937;51.160;4.146;2023-09-12T01:46:25;23.40;99.90
43346;DHT22;28937;51.160;4.146;2023-09-12T01:48:52;23.40;99.90
43346;DHT22;28937;51.160;4.146;2023-09-12T01:51:19;23.40;99.90
43346;DHT22;28937;51.160;4.146;2023-09-12T01:53:45;23.40;99.90
43346;DHT22;28937;51.160;4.146;2023-09-12T01:56:13;23.30;99.90
43346;DHT22;28937;51.160;4.146;2023-09-12T01:58:39;23.30;99.90
43346;DHT22;28937;51.160;4.146;2023-09-12T02:01:05;23.40;99.90
43346;DHT22;28937;51.160;4.146;2023-09-12T02:03:30;23.30;99.90
43346;DHT22;28937;51.160;4.146;2023-09-12T02:05:56;23.30;99.90
43346;DHT22;28937;51.160;4.146;2023-09-12T02:08:21;23.30;99.90
43346;DHT22;28937;51.160;4.146;2023-09-12T02:10:47;23.30;99.90
43346;DHT22;28937;51.160;4.146;2023-09-12T02:13:13;23.30;99.90
43346;DHT22;28937;51.160;4.146;2023-09-12T02:15:38;23.30;99.90
43346;DHT22;28937;51.160;4.146;2023-09-12T02:18:04;23.30;99.90
43346;DHT22;28937;51.160;4.146;2023-09-12T02:20:30;23.20;99.90
43346;DHT22;28937;51.160;4.146;2023-09-12T02:22:56;23.20;99.90
43346;DHT22;28937;51.160;4.146;2023-09-12T02:25:21;23.20;99.90
43346;DHT22;28937;51.160;4.146;2023-09-12T02:27:47;23.20;99.90
43346;DHT22;28937;51.160;4.146;2023-09-12T02:30:13;23.20;99.90
43346;DHT22;28937;51.160;4.146;2023-09-12T02:32:38;23.20;99.90
43346;DHT22;28937;51.160;4.146;2023-09-12T02:35:04;23.30;99.90
43346;DHT22;28937;51.160;4.146;2023-09-12T02:37:30;23.20;99.90
43346;DHT22;28937;51.160;4.146;2023-09-12T02:39:55;23.20;99.90
43346;DHT22;28937;51.160;4.146;2023-09-12T02:42:21;23.20;99.90
43346;DHT22;28937;51.160;4.146;2023-09-12T02:44:46;23.20;99.90
43346;DHT22;28937;51.160;4.146;2023-09-12T02:47:13;23.20;99.90
43346;DHT22;28937;51.160;4.146;2023-09-12T02:49:38;23.10;99.90
43346;DHT22;28937;51.160;4.146;2023-09-12T02:52:04;23.10;99.90
43346;DHT22;28937;51.160;4.146;2023-09-12T02:54:29;23.10;99.90
43346;DHT22;28937;51.160;4.146;2023-09-12T02:56:55;23.10;99.90
43346;DHT22;28937;51.160;4.146;2023-09-12T02:59:21;23.10;99.90
43346;DHT22;28937;51.160;4.146;2023-09-12T03:01:46;23.10;99.90
43346;DHT22;28937;51.160;4.146;2023-09-12T03:04:12;23.10;99.90
43346;DHT22;28937;51.160;4.146;2023-09-12T03:06:37;23.10;99.90
43346;DHT22;28937;51.160;4.146;2023-09-12T03:09:04;23.10;99.90
43346;DHT22;28937;51.160;4.146;2023-09-12T03:11:29;23.10;99.90
43346;DHT22;28937;51.160;4.146;2023-09-12T03:13:55;23.10;99.90
43346;DHT22;28937;51.160;4.146;2023-09-12T03:16:21;23.00;99.90
43346;DHT22;28937;51.160;4.146;2023-09-12T03:18:48;23.00;99.90
43346;DHT22;28937;51.160;4.146;2023-09-12T03:21:14;23.00;99.90
43346;DHT22;28937;51.160;4.146;2023-09-12T03:23:39;23.00;99.90
43346;DHT22;28937;51.160;4.146;2023-09-12T03:26:05;23.00;99.90
43346;DHT22;28937;51.160;4.146;2023-09-12T03:28:32;23.00;99.90
43346;DHT22;28937;51.160;4.146;2023-09-12T03:31:07;22.90;99.90
43346;DHT22;28937;51.160;4.146;2023-09-12T03:33:33;23.00;99.90
43346;DHT22;28937;51.160;4.146;2023-09-12T03:35:58;22.90;99.90
43346;DHT22;28937;51.160;4.146;2023-09-12T03:38:24;22.90;99.90
43346;DHT22;28937;51.160;4.146;2023-09-12T03:40:50;22.90;99.90
43346;DHT22;28937;51.160;4.146;2023-09-12T03:43:15;23.00;99.90
43346;DHT22;28937;51.160;4.146;2023-09-12T03:45:41;22.90;99.90
43346;DHT22;28937;51.160;4.146;2023-09-12T03:48:06;22.80;99.90
43346;DHT22;28937;51.160;4.146;2023-09-12T03:50:32;22.90;99.90
43346;DHT22;28937;51.160;4.146;2023-09-12T03:52:58;22.80;99.90
43346;DHT22;28937;51.160;4.146;2023-09-12T03:55:23;22.80;99.90
43346;DHT22;28937;51.160;4.146;2023-09-12T03:57:49;22.80;99.90
43346;DHT22;28937;51.160;4.146;2023-09-12T04:00:15;22.80;99.90
43346;DHT22;28937;51.160;4.146;2023-09-12T04:02:41;22.80;99.90
43346;DHT22;28937;51.160;4.146;2023-09-12T04:05:07;22.80;99.90
43346;DHT22;28937;51.160;4.146;2023-09-12T04:07:32;22.80;99.90
43346;DHT22;28937;51.160;4.146;2023-09-12T04:09:58;22.80;99.90
43346;DHT22;28937;51.160;4.146;2023-09-12T04:12:23;22.80;99.90
43346;DHT22;28937;51.160;4.146;2023-09-12T04:14:50;22.80;99.90
43346;DHT22;28937;51.160;4.146;2023-09-12T04:17:16;22.80;99.90
43346;DHT22;28937;51.160;4.146;2023-09-12T04:19:42;22.70;99.90
43346;DHT22;28937;51.160;4.146;2023-09-12T04:22:07;22.80;99.90
43346;DHT22;28937;51.160;4.146;2023-09-12T04:24:33;22.70;99.90
43346;DHT22;28937;51.160;4.146;2023-09-12T04:26:58;22.70;99.90
43346;DHT22;28937;51.160;4.146;2023-09-12T04:29:24;22.80;99.90
43346;DHT22;28937;51.160;4.146;2023-09-12T04:31:50;22.90;99.90
43346;DHT22;28937;51.160;4.146;2023-09-12T04:34:18;23.00;99.90
43346;DHT22;28937;51.160;4.146;2023-09-12T04:36:43;23.00;99.90
43346;DHT22;28937;51.160;4.146;2023-09-12T04:39:09;23.00;99.90
43346;DHT22;28937;51.160;4.146;2023-09-12T04:41:34;23.00;99.90
43346;DHT22;28937;51.160;4.146;2023-09-12T04:44:00;23.00;99.90
43346;DHT22;28937;51.160;4.146;2023-09-12T04:46:27;23.00;99.90
43346;DHT22;28937;51.160;4.146;2023-09-12T04:48:53;23.00;99.90
43346;DHT22;28937;51.160;4.146;2023-09-12T04:51:18;23.10;99.90
43346;DHT22;28937;51.160;4.146;2023-09-12T04:53:44;23.00;99.90
43346;DHT22;28937;51.160;4.146;2023-09-12T04:56:10;23.00;99.90
43346;DHT22;28937;51.160;4.146;2023-09-12T04:58:35;23.00;99.90
43346;DHT22;28937;51.160;4.146;2023-09-12T05:01:01;23.10;99.90
43346;DHT22;28937;51.160;4.146;2023-09-12T05:03:27;23.00;99.90
43346;DHT22;28937;51.160;4.146;2023-09-12T05:05:53;22.90;99.90
43346;DHT22;28937;51.160;4.146;2023-09-12T05:08:19;22.90;99.90
43346;DHT22;28937;51.160;4.146;2023-09-12T05:10:45;22.90;99.90
43346;DHT22;28937;51.160;4.146;2023-09-12T05:13:11;22.90;99.90
43346;DHT22;28937;51.160;4.146;2023-09-12T05:15:37;22.90;99.90
43346;DHT22;28937;51.160;4.146;2023-09-12T05:18:05;22.80;99.90
43346;DHT22;28937;51.160;4.146;2023-09-12T05:20:31;22.90;99.90
43346;DHT22;28937;51.160;4.146;2023-09-12T05:22:57;22.80;99.90
43346;DHT22;28937;51.160;4.146;2023-09-12T05:25:22;22.80;99.90
43346;DHT22;28937;51.160;4.146;2023-09-12T05:27:48;22.80;99.90
43346;DHT22;28937;51.160;4.146;2023-09-12T05:30:14;22.80;99.90
43346;DHT22;28937;51.160;4.146;2023-09-12T05:32:41;22.80;99.90
43346;DHT22;28937;51.160;4.146;2023-09-12T05:35:07;22.90;99.90
43346;DHT22;28937;51.160;4.146;2023-09-12T05:37:33;22.90;99.90
43346;DHT22;28937;51.160;4.146;2023-09-12T05:39:58;22.90;99.90
43346;DHT22;28937;51.160;4.146;2023-09-12T05:42:24;22.80;99.90
43346;DHT22;28937;51.160;4.146;2023-09-12T05:44:50;22.80;99.90
43346;DHT22;28937;51.160;4.146;2023-09-12T05:47:19;22.70;99.90
43346;DHT22;28937;51.160;4.146;2023-09-12T05:49:45;22.70;99.90
43346;DHT22;28937;51.160;4.146;2023-09-12T05:52:10;22.70;99.90
43346;DHT22;28937;51.160;4.146;2023-09-12T05:54:36;22.80;99.90
43346;DHT22;28937;51.160;4.146;2023-09-12T05:57:02;22.80;99.90
43346;DHT22;28937;51.160;4.146;2023-09-12T05:59:28;22.80;99.90
43346;DHT22;28937;51.160;4.146;2023-09-12T06:01:54;22.80;99.90
43346;DHT22;28937;51.160;4.146;2023-09-12T06:04:21;22.80;99.90
43346;DHT22;28937;51.160;4.146;2023-09-12T06:06:47;22.80;99.90
43346;DHT22;28937;51.160;4.146;2023-09-12T06:09:12;22.90;99.90
43346;DHT22;28937;51.160;4.146;2023-09-12T06:11:38;22.80;99.90
43346;DHT22;28937;51.160;4.146;2023-09-12T06:14:03;22.90;99.90
43346;DHT22;28937;51.160;4.146;2023-09-12T06:16:29;22.80;99.90
43346;DHT22;28937;51.160;4.146;2023-09-12T06:18:55;22.80;99.90
43346;DHT22;28937;51.160;4.146;2023-09-12T06:21:22;22.80;99.90
43346;DHT22;28937;51.160;4.146;2023-09-12T06:23:57;22.80;99.90
43346;DHT22;28937;51.160;4.146;2023-09-12T06:26:32;22.90;99.90
43346;DHT22;28937;51.160;4.146;2023-09-12T06:28:59;22.80;99.90
43346;DHT22;28937;51.160;4.146;2023-09-12T06:31:24;22.80;99.90
43346;DHT22;28937;51.160;4.146;2023-09-12T06:33:50;22.70;99.90
43346;DHT22;28937;51.160;4.146;2023-09-12T06:36:15;22.70;99.90
43346;DHT22;28937;51.160;4.146;2023-09-12T06:38:41;22.70;99.90
43346;DHT22;28937;51.160;4.146;2023-09-12T06:41:06;22.70;99.90
43346;DHT22;28937;51.160;4.146;2023-09-12T06:43:32;22.60;99.90
43346;DHT22;28937;51.160;4.146;2023-09-12T06:45:58;22.60;99.90
43346;DHT22;28937;51.160;4.146;2023-09-12T06:48:23;22.60;99.90
43346;DHT22;28937;51.160;4.146;2023-09-12T06:50:49;22.60;99.90
43346;DHT22;28937;51.160;4.146;2023-09-12T06:53:15;22.60;99.90
43346;DHT22;28937;51.160;4.146;2023-09-12T06:55:41;22.60;99.90
43346;DHT22;28937;51.160;4.146;2023-09-12T06:58:07;22.50;99.90
43346;DHT22;28937;51.160;4.146;2023-09-12T07:00:33;22.60;99.90
43346;DHT22;28937;51.160;4.146;2023-09-12T07:02:59;22.60;99.90
43346;DHT22;28937;51.160;4.146;2023-09-12T07:05:24;22.50;99.90
43346;DHT22;28937;51.160;4.146;2023-09-12T07:07:51;22.50;99.90
43346;DHT22;28937;51.160;4.146;2023-09-12T07:10:17;22.60;99.90
43346;DHT22;28937;51.160;4.146;2023-09-12T07:12:43;22.60;99.90
43346;DHT22;28937;51.160;4.146;2023-09-12T07:15:09;22.60;99.90
43346;DHT22;28937;51.160;4.146;2023-09-12T07:17:35;22.60;99.90
43346;DHT22;28937;51.160;4.146;2023-09-12T07:20:01;22.60;99.90
43346;DHT22;28937;51.160;4.146;2023-09-12T07:22:26;22.60;99.90
43346;DHT22;28937;51.160;4.146;2023-09-12T07:24:52;22.50;99.90
43346;DHT22;28937;51.160;4.146;2023-09-12T07:27:17;22.50;99.90
43346;DHT22;28937;51.160;4.146;2023-09-12T07:29:43;22.60;99.90
43346;DHT22;28937;51.160;4.146;2023-09-12T07:32:09;22.50;99.90
43346;DHT22;28937;51.160;4.146;2023-09-12T07:34:34;22.60;99.90
43346;DHT22;28937;51.160;4.146;2023-09-12T07:37:00;22.50;99.90
43346;DHT22;28937;51.160;4.146;2023-09-12T07:39:26;22.50;99.90
43346;DHT22;28937;51.160;4.146;2023-09-12T07:41:52;22.60;99.90
43346;DHT22;28937;51.160;4.146;2023-09-12T07:44:17;22.50;99.90
43346;DHT22;28937;51.160;4.146;2023-09-12T07:46:43;22.60;99.90
43346;DHT22;28937;51.160;4.146;2023-09-12T07:49:09;22.60;99.90
43346;DHT22;28937;51.160;4.146;2023-09-12T07:51:35;22.60;99.90
43346;DHT22;28937;51.160;4.146;2023-09-12T07:54:01;22.60;99.90
43346;DHT22;28937;51.160;4.146;2023-09-12T07:56:27;22.60;99.90
43346;DHT22;28937;51.160;4.146;2023-09-12T07:58:53;22.60;99.90
43346;DHT22;28937;51.160;4.146;2023-09-12T08:01:18;22.60;99.90
43346;DHT22;28937;51.160;4.146;2023-09-12T08:03:44;22.60;99.90
43346;DHT22;28937;51.160;4.146;2023-09-12T08:06:10;22.60;99.90
43346;DHT22;28937;51.160;4.146;2023-09-12T08:08:36;22.60;99.90
43346;DHT22;28937;51.160;4.146;2023-09-12T08:11:02;22.60;99.90
43346;DHT22;28937;51.160;4.146;2023-09-12T08:13:29;22.60;99.90
43346;DHT22;28937;51.160;4.146;2023-09-12T08:15:55;22.60;99.90
43346;DHT22;28937;51.160;4.146;2023-09-12T08:18:21;22.60;99.90
43346;DHT22;28937;51.160;4.146;2023-09-12T08:20:47;22.60;99.90
43346;DHT22;28937;51.160;4.146;2023-09-12T08:23:13;22.60;99.90
43346;DHT22;28937;51.160;4.146;2023-09-12T08:25:39;22.70;99.90
43346;DHT22;28937;51.160;4.146;2023-09-12T08:28:05;22.70;99.90
43346;DHT22;28937;51.160;4.146;2023-09-12T08:30:31;22.70;99.90
43346;DHT22;28937;51.160;4.146;2023-09-12T08:32:58;22.70;99.90
43346;DHT22;28937;51.160;4.146;2023-09-12T08:35:24;22.80;99.90
43346;DHT22;28937;51.160;4.146;2023-09-12T08:37:51;22.80;99.90
43346;DHT22;28937;51.160;4.146;2023-09-12T08:40:17;22.80;99.90
43346;DHT22;28937;51.160;4.146;2023-09-12T08:42:44;22.80;99.90
43346;DHT22;28937;51.160;4.146;2023-09-12T08:45:18;22.80;99.90
43346;DHT22;28937;51.160;4.146;2023-09-12T08:47:45;22.80;99.90
43346;DHT22;28937;51.160;4.146;2023-09-12T08:50:15;22.80;99.90
43346;DHT22;28937;51.160;4.146;2023-09-12T08:52:45;22.90;99.90
43346;DHT22;28937;51.160;4.146;2023-09-12T08:55:11;22.90;99.90
43346;DHT22;28937;51.160;4.146;2023-09-12T08:57:41;22.90;99.90
43346;DHT22;28937;51.160;4.146;2023-09-12T09:00:08;22.90;99.90
43346;DHT22;28937;51.160;4.146;2023-09-12T09:02:36;22.90;99.90
43346;DHT22;28937;51.160;4.146;2023-09-12T09:05:05;22.90;99.90
43346;DHT22;28937;51.160;4.146;2023-09-12T09:07:34;23.00;99.90
43346;DHT22;28937;51.160;4.146;2023-09-12T09:10:02;23.00;99.90
43346;DHT22;28937;51.160;4.146;2023-09-12T09:12:30;23.00;99.90
43346;DHT22;28937;51.160;4.146;2023-09-12T09:14:56;23.10;99.90
43346;DHT22;28937;51.160;4.146;2023-09-12T09:17:22;23.10;99.90
43346;DHT22;28937;51.160;4.146;2023-09-12T09:19:48;23.10;99.90
43346;DHT22;28937;51.160;4.146;2023-09-12T09:22:14;23.10;99.90
43346;DHT22;28937;51.160;4.146;2023-09-12T09:24:39;23.10;99.90
43346;DHT22;28937;51.160;4.146;2023-09-12T09:27:05;23.20;99.90
43346;DHT22;28937;51.160;4.146;2023-09-12T09:29:30;23.20;99.90
43346;DHT22;28937;51.160;4.146;2023-09-12T09:32:01;23.20;99.90
43346;DHT22;28937;51.160;4.146;2023-09-12T09:34:30;23.30;99.90
43346;DHT22;28937;51.160;4.146;2023-09-12T09:36:57;23.30;99.90
43346;DHT22;28937;51.160;4.146;2023-09-12T09:39:25;23.30;99.90
43346;DHT22;28937;51.160;4.146;2023-09-12T09:41:53;23.30;99.90
43346;DHT22;28937;51.160;4.146;2023-09-12T09:44:20;23.30;99.90
43346;DHT22;28937;51.160;4.146;2023-09-12T09:46:50;23.30;99.90
43346;DHT22;28937;51.160;4.146;2023-09-12T09:49:19;23.40;99.90
43346;DHT22;28937;51.160;4.146;2023-09-12T09:51:45;23.40;99.90
43346;DHT22;28937;51.160;4.146;2023-09-12T09:54:14;23.40;99.90
43346;DHT22;28937;51.160;4.146;2023-09-12T09:56:54;23.40;99.90
43346;DHT22;28937;51.160;4.146;2023-09-12T09:59:24;23.40;99.90
43346;DHT22;28937;51.160;4.146;2023-09-12T10:01:55;23.40;99.90
43346;DHT22;28937;51.160;4.146;2023-09-12T10:04:22;23.40;99.90
43346;DHT22;28937;51.160;4.146;2023-09-12T10:06:49;23.40;99.90
43346;DHT22;28937;51.160;4.146;2023-09-12T10:09:16;23.50;99.90
43346;DHT22;28937;51.160;4.146;2023-09-12T10:11:46;23.50;99.90
43346;DHT22;28937;51.160;4.146;2023-09-12T10:14:15;23.50;99.90
43346;DHT22;28937;51.160;4.146;2023-09-12T10:16:47;23.50;99.90
43346;DHT22;28937;51.160;4.146;2023-09-12T10:19:17;23.50;99.90
43346;DHT22;28937;51.160;4.146;2023-09-12T10:22:07;23.50;99.90
43346;DHT22;28937;51.160;4.146;2023-09-12T10:24:35;23.50;99.90
43346;DHT22;28937;51.160;4.146;2023-09-12T10:27:03;23.60;99.90
43346;DHT22;28937;51.160;4.146;2023-09-12T10:29:31;23.60;99.90
43346;DHT22;28937;51.160;4.146;2023-09-12T10:31:57;23.60;99.90
43346;DHT22;28937;51.160;4.146;2023-09-12T10:34:25;23.60;99.90
43346;DHT22;28937;51.160;4.146;2023-09-12T10:36:52;23.70;99.90
43346;DHT22;28937;51.160;4.146;2023-09-12T10:39:20;23.70;99.90
43346;DHT22;28937;51.160;4.146;2023-09-12T10:41:49;23.70;99.90
43346;DHT22;28937;51.160;4.146;2023-09-12T10:44:17;23.70;99.90
43346;DHT22;28937;51.160;4.146;2023-09-12T10:46:45;23.70;99.90
43346;DHT22;28937;51.160;4.146;2023-09-12T10:49:13;23.70;99.90
43346;DHT22;28937;51.160;4.146;2023-09-12T10:51:40;23.70;99.90
43346;DHT22;28937;51.160;4.146;2023-09-12T10:54:07;23.70;99.90
43346;DHT22;28937;51.160;4.146;2023-09-12T10:56:34;23.80;99.90
43346;DHT22;28937;51.160;4.146;2023-09-12T11:01:44;23.80;99.90
43346;DHT22;28937;51.160;4.146;2023-09-12T11:06:50;23.80;99.90
43346;DHT22;28937;51.160;4.146;2023-09-12T11:09:23;23.90;99.90
43346;DHT22;28937;51.160;4.146;2023-09-12T11:12:03;23.90;99.90
43346;DHT22;28937;51.160;4.146;2023-09-12T11:14:31;23.90;99.90
43346;DHT22;28937;51.160;4.146;2023-09-12T11:19:44;23.90;99.90
43346;DHT22;28937;51.160;4.146;2023-09-12T11:22:28;24.00;99.90
43346;DHT22;28937;51.160;4.146;2023-09-12T11:28:19;24.00;99.90
43346;DHT22;28937;51.160;4.146;2023-09-12T11:30:57;24.00;99.90
43346;DHT22;28937;51.160;4.146;2023-09-12T11:33:43;24.00;99.90
43346;DHT22;28937;51.160;4.146;2023-09-12T11:36:13;24.00;99.90
43346;DHT22;28937;51.160;4.146;2023-09-12T11:38:39;24.00;99.90
43346;DHT22;28937;51.160;4.146;2023-09-12T11:41:05;24.00;99.90
43346;DHT22;28937;51.160;4.146;2023-09-12T11:43:30;24.00;99.90
43346;DHT22;28937;51.160;4.146;2023-09-12T11:45:58;24.10;99.90
43346;DHT22;28937;51.160;4.146;2023-09-12T11:48:23;24.10;99.90
43346;DHT22;28937;51.160;4.146;2023-09-12T11:50:54;24.10;99.90
43346;DHT22;28937;51.160;4.146;2023-09-12T11:53:22;24.10;99.90
43346;DHT22;28937;51.160;4.146;2023-09-12T11:55:50;24.10;99.90
43346;DHT22;28937;51.160;4.146;2023-09-12T11:58:19;24.10;99.90
43346;DHT22;28937;51.160;4.146;2023-09-12T12:00:55;24.10;99.90
43346;DHT22;28937;51.160;4.146;2023-09-12T12:03:25;24.10;99.90
43346;DHT22;28937;51.160;4.146;2023-09-12T12:05:52;24.20;99.90
43346;DHT22;28937;51.160;4.146;2023-09-12T12:08:19;24.20;99.90
43346;DHT22;28937;51.160;4.146;2023-09-12T12:10:53;24.20;99.90
43346;DHT22;28937;51.160;4.146;2023-09-12T12:13:20;24.20;99.90
43346;DHT22;28937;51.160;4.146;2023-09-12T12:15:46;24.20;99.90
43346;DHT22;28937;51.160;4.146;2023-09-12T12:18:13;24.20;99.90
43346;DHT22;28937;51.160;4.146;2023-09-12T12:20:38;24.20;99.90
43346;DHT22;28937;51.160;4.146;2023-09-12T12:23:04;24.20;99.90
43346;DHT22;28937;51.160;4.146;2023-09-12T12:25:33;24.30;99.90
43346;DHT22;28937;51.160;4.146;2023-09-12T12:28:00;24.30;99.90
43346;DHT22;28937;51.160;4.146;2023-09-12T12:30:29;24.30;99.90
43346;DHT22;28937;51.160;4.146;2023-09-12T12:32:55;24.30;99.90
43346;DHT22;28937;51.160;4.146;2023-09-12T12:35:23;24.30;99.90
43346;DHT22;28937;51.160;4.146;2023-09-12T12:37:54;24.30;99.90
43346;DHT22;28937;51.160;4.146;2023-09-12T12:40:21;24.30;99.90
43346;DHT22;28937;51.160;4.146;2023-09-12T12:42:47;24.40;99.90
43346;DHT22;28937;51.160;4.146;2023-09-12T12:45:14;24.40;99.90
43346;DHT22;28937;51.160;4.146;2023-09-12T12:47:40;24.40;99.90
43346;DHT22;28937;51.160;4.146;2023-09-12T12:50:15;24.40;99.90
43346;DHT22;28937;51.160;4.146;2023-09-12T12:52:45;24.50;99.90
43346;DHT22;28937;51.160;4.146;2023-09-12T12:55:13;24.40;99.90
43346;DHT22;28937;51.160;4.146;2023-09-12T12:57:41;24.50;99.90
43346;DHT22;28937;51.160;4.146;2023-09-12T13:00:12;24.50;99.90
43346;DHT22;28937;51.160;4.146;2023-09-12T13:02:39;24.50;99.90
43346;DHT22;28937;51.160;4.146;2023-09-12T13:05:18;24.50;99.90
43346;DHT22;28937;51.160;4.146;2023-09-12T13:07:44;24.50;99.90
43346;DHT22;28937;51.160;4.146;2023-09-12T13:10:10;24.60;99.90
43346;DHT22;28937;51.160;4.146;2023-09-12T13:12:35;24.60;99.90
43346;DHT22;28937;51.160;4.146;2023-09-12T13:15:06;24.60;99.90
43346;DHT22;28937;51.160;4.146;2023-09-12T13:17:32;24.60;99.90
43346;DHT22;28937;51.160;4.146;2023-09-12T13:19:58;24.60;99.90
43346;DHT22;28937;51.160;4.146;2023-09-12T13:22:24;24.60;99.90
43346;DHT22;28937;51.160;4.146;2023-09-12T13:24:49;24.60;99.90
43346;DHT22;28937;51.160;4.146;2023-09-12T13:27:15;24.60;99.90
43346;DHT22;28937;51.160;4.146;2023-09-12T13:29:40;24.60;99.90
43346;DHT22;28937;51.160;4.146;2023-09-12T13:32:06;24.60;99.90
43346;DHT22;28937;51.160;4.146;2023-09-12T13:34:32;24.60;99.90
43346;DHT22;28937;51.160;4.146;2023-09-12T13:36:57;24.70;99.90
43346;DHT22;28937;51.160;4.146;2023-09-12T13:39:24;24.70;99.90
43346;DHT22;28937;51.160;4.146;2023-09-12T13:41:50;24.70;99.90
43346;DHT22;28937;51.160;4.146;2023-09-12T13:44:17;24.70;99.90
43346;DHT22;28937;51.160;4.146;2023-09-12T13:46:42;24.70;99.90
43346;DHT22;28937;51.160;4.146;2023-09-12T13:49:12;24.70;99.90
43346;DHT22;28937;51.160;4.146;2023-09-12T13:51:38;24.80;99.90
43346;DHT22;28937;51.160;4.146;2023-09-12T13:54:04;24.80;99.90
43346;DHT22;28937;51.160;4.146;2023-09-12T13:56:29;24.80;99.90
43346;DHT22;28937;51.160;4.146;2023-09-12T13:58:55;24.80;99.90
43346;DHT22;28937;51.160;4.146;2023-09-12T14:01:21;24.80;99.90
43346;DHT22;28937;51.160;4.146;2023-09-12T14:03:48;24.80;99.90
43346;DHT22;28937;51.160;4.146;2023-09-12T14:06:13;24.80;99.90
43346;DHT22;28937;51.160;4.146;2023-09-12T14:08:39;24.80;99.90
43346;DHT22;28937;51.160;4.146;2023-09-12T14:11:04;24.80;99.90
43346;DHT22;28937;51.160;4.146;2023-09-12T14:13:30;24.80;99.90
43346;DHT22;28937;51.160;4.146;2023-09-12T14:15:56;24.90;99.90
43346;DHT22;28937;51.160;4.146;2023-09-12T14:18:21;24.90;99.90
43346;DHT22;28937;51.160;4.146;2023-09-12T14:20:47;24.90;99.90
43346;DHT22;28937;51.160;4.146;2023-09-12T14:23:12;24.90;99.90
43346;DHT22;28937;51.160;4.146;2023-09-12T14:25:38;24.90;99.90
43346;DHT22;28937;51.160;4.146;2023-09-12T14:28:04;24.90;99.90
43346;DHT22;28937;51.160;4.146;2023-09-12T14:30:35;24.90;99.90
43346;DHT22;28937;51.160;4.146;2023-09-12T14:33:12;24.90;99.90
43346;DHT22;28937;51.160;4.146;2023-09-12T14:35:39;24.90;99.90
43346;DHT22;28937;51.160;4.146;2023-09-12T14:38:04;25.00;99.90
43346;DHT22;28937;51.160;4.146;2023-09-12T14:40:30;24.90;99.90
43346;DHT22;28937;51.160;4.146;2023-09-12T14:42:56;24.90;99.90
43346;DHT22;28937;51.160;4.146;2023-09-12T14:45:22;24.90;99.90
43346;DHT22;28937;51.160;4.146;2023-09-12T14:47:49;24.90;99.90
43346;DHT22;28937;51.160;4.146;2023-09-12T14:50:15;24.90;99.90
43346;DHT22;28937;51.160;4.146;2023-09-12T14:52:40;25.00;99.90
43346;DHT22;28937;51.160;4.146;2023-09-12T14:55:07;25.00;99.90
43346;DHT22;28937;51.160;4.146;2023-09-12T14:57:34;25.00;99.90
43346;DHT22;28937;51.160;4.146;2023-09-12T15:00:00;25.00;99.90
43346;DHT22;28937;51.160;4.146;2023-09-12T15:02:26;25.00;99.90
43346;DHT22;28937;51.160;4.146;2023-09-12T15:04:58;25.00;99.90
43346;DHT22;28937;51.160;4.146;2023-09-12T15:07:24;25.00;99.90
43346;DHT22;28937;51.160;4.146;2023-09-12T15:09:50;25.00;99.90
43346;DHT22;28937;51.160;4.146;2023-09-12T15:12:16;25.00;99.90
43346;DHT22;28937;51.160;4.146;2023-09-12T15:14:41;25.00;99.90
43346;DHT22;28937;51.160;4.146;2023-09-12T15:17:07;25.00;99.90
43346;DHT22;28937;51.160;4.146;2023-09-12T15:19:33;25.00;99.90
43346;DHT22;28937;51.160;4.146;2023-09-12T15:21:58;25.10;99.90
43346;DHT22;28937;51.160;4.146;2023-09-12T15:24:24;25.00;99.90
43346;DHT22;28937;51.160;4.146;2023-09-12T15:26:52;25.00;99.90
43346;DHT22;28937;51.160;4.146;2023-09-12T15:29:17;25.00;99.90
43346;DHT22;28937;51.160;4.146;2023-09-12T15:31:43;25.00;99.90
43346;DHT22;28937;51.160;4.146;2023-09-12T15:34:09;25.00;99.90
43346;DHT22;28937;51.160;4.146;2023-09-12T15:36:45;25.00;99.90
43346;DHT22;28937;51.160;4.146;2023-09-12T15:39:11;25.00;99.90
43346;DHT22;28937;51.160;4.146;2023-09-12T15:41:37;25.00;99.90
43346;DHT22;28937;51.160;4.146;2023-09-12T15:44:03;25.10;99.90
43346;DHT22;28937;51.160;4.146;2023-09-12T15:46:29;25.10;99.90